createdAt,value
2019-02-24T00:00:40.677Z,27.50
2019-02-24T00:03:08.580Z,27.70
2019-02-24T00:05:37.048Z,28.30
2019-02-24T00:08:05.029Z,27.50
2019-02-24T00:10:33.158Z,29.00
2019-02-24T00:13:01.159Z,28.60
2019-02-24T00:15:29.149Z,27.90
2019-02-24T00:17:57.105Z,26.90
2019-02-24T00:20:25.011Z,27.30
2019-02-24T00:22:52.909Z,27.30
2019-02-24T00:25:20.923Z,26.60
2019-02-24T00:27:49.310Z,26.10
2019-02-24T00:30:17.522Z,27.90
2019-02-24T00:32:45.926Z,28.30
2019-02-24T00:35:13.942Z,28.60
2019-02-24T00:37:41.730Z,28.60
2019-02-24T00:40:09.979Z,29.30
2019-02-24T00:42:38.384Z,28.50
2019-02-24T00:45:06.612Z,28.50
2019-02-24T00:47:34.611Z,27.90
2019-02-24T00:50:02.585Z,28.50
2019-02-24T00:52:30.570Z,28.50
2019-02-24T00:54:58.565Z,28.10
2019-02-24T00:57:26.978Z,28.10
2019-02-24T00:59:54.860Z,27.80
2019-02-24T01:02:22.763Z,26.70
2019-02-24T01:04:51.332Z,27.40
2019-02-24T01:07:19.231Z,28.60
2019-02-24T01:09:47.130Z,28.50
2019-02-24T01:12:14.972Z,26.30
2019-02-24T01:14:43.423Z,26.60
2019-02-24T01:17:11.219Z,27.50
2019-02-24T01:19:39.170Z,28.20
2019-02-24T01:22:07.088Z,28.30
2019-02-24T01:24:35.128Z,28.20
2019-02-24T01:27:03.038Z,27.40
2019-02-24T01:29:30.994Z,27.80
2019-02-24T01:31:58.857Z,27.30
2019-02-24T01:34:26.750Z,27.20
2019-02-24T01:37:03.174Z,28.10
2019-02-24T01:39:31.039Z,28.10
2019-02-24T01:41:59.252Z,27.80
2019-02-24T01:44:27.550Z,26.50
2019-02-24T01:46:55.418Z,27.40
2019-02-24T01:49:23.384Z,27.00
2019-02-24T01:51:51.366Z,27.70
2019-02-24T01:54:19.282Z,27.90
2019-02-24T01:56:47.250Z,27.30
2019-02-24T01:59:15.527Z,27.30
2019-02-24T02:01:43.793Z,27.00
2019-02-24T02:04:11.735Z,26.20
2019-02-24T02:06:39.674Z,26.30
2019-02-24T02:09:08.220Z,25.80
2019-02-24T02:11:36.762Z,24.70
2019-02-24T02:14:04.633Z,25.10
2019-02-24T02:16:32.847Z,25.70
2019-02-24T02:19:00.747Z,25.10
2019-02-24T02:21:28.689Z,25.00
2019-02-24T02:23:56.614Z,25.30
2019-02-24T02:26:24.687Z,24.80
2019-02-24T02:28:53.140Z,25.30
2019-02-24T02:31:21.047Z,24.40
2019-02-24T02:33:48.963Z,24.70
2019-02-24T02:36:16.830Z,25.10
2019-02-24T02:38:44.852Z,25.50
2019-02-24T02:41:12.689Z,26.20
2019-02-24T02:43:41.051Z,26.90
2019-02-24T02:46:08.967Z,26.70
2019-02-24T02:48:36.973Z,26.70
2019-02-24T02:51:05.267Z,27.10
2019-02-24T02:53:33.259Z,27.30
2019-02-24T02:56:01.207Z,27.70
2019-02-24T02:58:29.575Z,27.90
2019-02-24T03:00:57.768Z,27.90
2019-02-24T03:03:25.602Z,27.10
2019-02-24T03:06:05.179Z,27.50
2019-02-24T03:08:47.207Z,27.60
2019-02-24T03:11:15.693Z,28.10
2019-02-24T03:13:43.574Z,27.90
2019-02-24T03:16:11.915Z,27.10
2019-02-24T03:18:39.894Z,26.60
2019-02-24T03:21:08.097Z,26.90
2019-02-24T03:23:36.120Z,27.50
2019-02-24T03:26:04.218Z,27.60
2019-02-24T03:28:32.246Z,27.80
2019-02-24T03:31:00.342Z,27.90
2019-02-24T03:33:28.596Z,27.90
2019-02-24T03:35:56.774Z,27.90
2019-02-24T03:38:25.123Z,28.10
2019-02-24T03:40:53.061Z,28.80
2019-02-24T03:43:21.320Z,29.20
2019-02-24T03:45:49.238Z,28.60
2019-02-24T03:48:17.842Z,28.30
2019-02-24T03:50:45.769Z,28.60
2019-02-24T03:53:13.787Z,28.50
2019-02-24T03:55:41.975Z,28.20
2019-02-24T03:58:10.715Z,28.80
2019-02-24T04:00:38.995Z,28.70
2019-02-24T04:03:07.261Z,28.70
2019-02-24T04:05:35.287Z,29.10
2019-02-24T04:08:03.137Z,29.20
2019-02-24T04:10:31.131Z,28.90
2019-02-24T04:12:59.022Z,29.10
2019-02-24T04:15:27.137Z,28.50
2019-02-24T04:17:54.998Z,28.60
2019-02-24T04:20:22.910Z,28.80
2019-02-24T04:22:50.867Z,28.90
2019-02-24T04:25:18.762Z,29.10
2019-02-24T04:27:46.696Z,29.40
2019-02-24T04:30:14.862Z,29.30
2019-02-24T04:32:42.763Z,29.30
2019-02-24T04:35:10.606Z,29.00
2019-02-24T04:37:38.616Z,29.10
2019-02-24T04:40:06.777Z,29.20
2019-02-24T04:42:34.729Z,29.20
2019-02-24T04:45:02.762Z,29.40
2019-02-24T04:47:30.696Z,29.70
2019-02-24T04:49:58.789Z,29.80
2019-02-24T04:52:26.728Z,29.80
2019-02-24T04:54:54.754Z,29.70
2019-02-24T04:57:22.672Z,29.60
2019-02-24T04:59:50.679Z,30.10
2019-02-24T05:02:18.583Z,29.70
2019-02-24T05:04:46.486Z,29.60
2019-02-24T05:07:14.748Z,29.20
2019-02-24T05:09:42.730Z,30.00
2019-02-24T05:12:10.632Z,29.70
2019-02-24T05:14:38.550Z,29.70
2019-02-24T05:17:06.812Z,29.70
2019-02-24T05:19:35.153Z,29.80
2019-02-24T05:22:03.181Z,29.80
2019-02-24T05:24:31.118Z,29.70
2019-02-24T05:26:59.075Z,29.70
2019-02-24T05:29:26.900Z,29.70
2019-02-24T05:31:54.806Z,29.70
2019-02-24T05:34:22.753Z,29.70
2019-02-24T05:36:50.772Z,29.90
2019-02-24T05:39:18.707Z,30.00
2019-02-24T05:41:46.609Z,30.30
2019-02-24T05:44:14.498Z,30.10
2019-02-24T05:46:42.335Z,30.20
2019-02-24T05:49:10.397Z,30.80
2019-02-24T05:51:38.823Z,31.20
2019-02-24T05:54:06.722Z,31.70
2019-02-24T05:56:34.673Z,32.10
2019-02-24T05:59:02.574Z,32.30
2019-02-24T06:01:30.477Z,31.30
2019-02-24T06:03:58.340Z,31.60
2019-02-24T06:06:26.231Z,32.20
2019-02-24T06:08:54.103Z,32.60
2019-02-24T06:11:22.019Z,31.70
2019-02-24T06:13:49.837Z,31.40
2019-02-24T06:16:17.783Z,32.00
2019-02-24T06:18:45.660Z,32.30
2019-02-24T06:21:13.606Z,31.30
2019-02-24T06:23:41.472Z,30.60
2019-02-24T06:26:09.715Z,30.90
2019-02-24T06:28:37.677Z,31.40
2019-02-24T06:31:05.699Z,32.00
2019-02-24T06:33:33.550Z,32.40
2019-02-24T06:36:01.567Z,32.30
2019-02-24T06:38:29.515Z,31.00
2019-02-24T06:40:57.431Z,30.20
2019-02-24T06:43:25.373Z,31.30
2019-02-24T06:45:53.283Z,31.80
2019-02-24T06:48:21.290Z,31.50
2019-02-24T06:51:01.094Z,30.90
2019-02-24T06:53:29.005Z,30.60
2019-02-24T06:55:56.852Z,31.50
2019-02-24T06:58:24.812Z,32.00
2019-02-24T07:00:52.718Z,32.50
2019-02-24T07:03:20.561Z,32.50
2019-02-24T07:05:48.662Z,32.00
2019-02-24T07:08:16.619Z,31.30
2019-02-24T07:10:44.524Z,31.20
2019-02-24T07:13:12.574Z,31.10
2019-02-24T07:15:40.514Z,31.60
2019-02-24T07:18:08.426Z,32.10
2019-02-24T07:20:36.359Z,31.10
2019-02-24T07:23:04.385Z,30.80
2019-02-24T07:25:32.559Z,30.80
2019-02-24T07:28:00.463Z,30.20
2019-02-24T07:30:28.447Z,30.00
2019-02-24T07:32:56.370Z,30.70
2019-02-24T07:35:24.665Z,31.20
2019-02-24T07:37:52.656Z,32.10
2019-02-24T07:40:20.727Z,31.90
2019-02-24T07:42:48.725Z,32.10
2019-02-24T07:45:16.618Z,32.30
2019-02-24T07:47:44.527Z,31.90
2019-02-24T07:50:12.457Z,31.20
2019-02-24T07:52:40.344Z,32.30
2019-02-24T07:55:08.555Z,32.10
2019-02-24T07:57:36.899Z,31.90
2019-02-24T08:00:04.942Z,31.20
2019-02-24T08:02:32.890Z,31.40
2019-02-24T08:05:00.870Z,29.50
2019-02-24T08:07:28.723Z,30.30
2019-02-24T08:09:56.721Z,31.50
2019-02-24T08:12:26.741Z,30.90
2019-02-24T08:14:54.663Z,31.00
2019-02-24T08:17:22.691Z,31.40
2019-02-24T08:19:50.591Z,29.50
2019-02-24T08:22:18.602Z,28.90
2019-02-24T08:24:46.875Z,29.60
2019-02-24T08:27:14.920Z,29.00
2019-02-24T08:29:42.818Z,29.00
2019-02-24T08:32:10.865Z,30.30
2019-02-24T08:34:38.809Z,29.60
2019-02-24T08:37:06.629Z,29.70
2019-02-24T08:39:34.468Z,30.20
2019-02-24T08:42:02.458Z,27.50
2019-02-24T08:44:30.255Z,28.80
2019-02-24T08:46:58.195Z,30.20
2019-02-24T08:49:26.170Z,30.70
2019-02-24T08:51:54.066Z,28.60
2019-02-24T08:54:21.945Z,27.40
2019-02-24T08:56:50.011Z,29.00
2019-02-24T08:59:17.969Z,28.80
2019-02-24T09:01:45.953Z,27.80
2019-02-24T09:04:13.922Z,27.70
2019-02-24T09:06:41.816Z,28.10
2019-02-24T09:09:09.715Z,27.10
2019-02-24T09:11:37.596Z,28.30
2019-02-24T09:14:05.610Z,27.60
2019-02-24T09:16:33.550Z,27.90
2019-02-24T09:19:01.458Z,28.90
2019-02-24T09:21:29.367Z,27.00
2019-02-24T09:23:57.282Z,26.40
2019-02-24T09:26:25.672Z,26.40
2019-02-24T09:28:53.679Z,25.90
2019-02-24T09:31:21.654Z,24.40
2019-02-24T09:33:49.661Z,25.20
2019-02-24T09:36:17.566Z,24.70
2019-02-24T09:38:45.554Z,23.80
2019-02-24T09:41:13.445Z,24.50
2019-02-24T09:43:41.543Z,23.90
2019-02-24T09:46:09.524Z,23.40
2019-02-24T09:48:37.427Z,23.90
2019-02-24T09:51:05.334Z,25.50
2019-02-24T09:53:33.224Z,24.50
2019-02-24T09:56:01.084Z,25.00
2019-02-24T09:58:28.954Z,24.50
2019-02-24T10:00:56.965Z,23.80
2019-02-24T10:03:24.998Z,23.60
2019-02-24T10:05:52.898Z,23.20
2019-02-24T10:08:20.815Z,25.70
2019-02-24T10:10:48.818Z,23.30
2019-02-24T10:13:17.034Z,22.20
2019-02-24T10:15:45.203Z,22.40
2019-02-24T10:18:13.155Z,23.10
2019-02-24T10:20:41.031Z,25.50
2019-02-24T10:23:08.998Z,25.80
2019-02-24T10:25:36.866Z,26.40
2019-02-24T10:28:04.907Z,24.20
2019-02-24T10:30:32.736Z,25.50
2019-02-24T10:33:00.779Z,26.00
2019-02-24T10:35:28.589Z,25.30
2019-02-24T10:37:56.581Z,23.60
2019-02-24T10:40:25.090Z,22.40
2019-02-24T10:42:52.898Z,24.00
2019-02-24T10:45:21.059Z,24.90
2019-02-24T10:47:48.954Z,21.80
2019-02-24T10:50:16.919Z,22.80
2019-02-24T10:52:45.046Z,24.60
2019-02-24T10:55:13.305Z,25.20
2019-02-24T10:57:41.187Z,23.40
2019-02-24T11:00:11.090Z,23.70
2019-02-24T11:02:38.978Z,24.40
2019-02-24T11:05:07.115Z,24.30
2019-02-24T11:07:35.011Z,23.30
2019-02-24T11:10:04.038Z,23.50
2019-02-24T11:12:32.153Z,22.40
2019-02-24T11:15:19.822Z,21.70
2019-02-24T11:17:47.730Z,22.00
2019-02-24T11:20:15.721Z,22.60
2019-02-24T11:22:43.724Z,21.00
2019-02-24T11:25:11.793Z,21.10
2019-02-24T11:27:39.850Z,21.90
2019-02-24T11:30:08.216Z,21.40
2019-02-24T11:32:36.139Z,22.20
2019-02-24T11:35:04.452Z,23.30
2019-02-24T11:37:32.487Z,23.20
2019-02-24T11:40:00.443Z,22.80
2019-02-24T11:42:28.378Z,23.80
2019-02-24T11:44:56.311Z,22.30
2019-02-24T11:47:25.867Z,22.10
2019-02-24T11:49:53.712Z,21.20
2019-02-24T11:52:21.584Z,21.10
2019-02-24T11:54:49.538Z,22.00
2019-02-24T11:57:17.529Z,23.40
2019-02-24T11:59:45.630Z,23.30
2019-02-24T12:02:13.514Z,22.00
2019-02-24T12:04:41.435Z,20.30
2019-02-24T12:07:09.442Z,21.30
2019-02-24T12:09:37.350Z,23.30
2019-02-24T12:12:05.463Z,23.20
2019-02-24T12:14:55.633Z,21.80
2019-02-24T12:17:24.836Z,21.70
2019-02-24T12:19:52.907Z,21.10
2019-02-24T12:22:20.947Z,21.20
2019-02-24T12:24:48.983Z,21.10
2019-02-24T12:27:16.886Z,20.90
2019-02-24T12:29:44.758Z,20.80
2019-02-24T12:32:12.635Z,21.00
2019-02-24T12:34:40.576Z,21.10
2019-02-24T12:37:08.519Z,20.50
2019-02-24T12:39:36.544Z,22.50
2019-02-24T12:42:04.394Z,22.90
2019-02-24T12:44:32.347Z,22.40
2019-02-24T12:47:00.573Z,21.10
2019-02-24T12:49:28.590Z,20.60
2019-02-24T12:51:56.476Z,20.80
2019-02-24T12:54:24.505Z,21.90
2019-02-24T12:56:52.430Z,21.70
2019-02-24T12:59:20.291Z,20.30
2019-02-24T13:01:48.283Z,20.80
2019-02-24T13:04:16.495Z,20.80
2019-02-24T13:06:44.343Z,21.30
2019-02-24T13:09:12.250Z,21.10
2019-02-24T13:11:40.266Z,20.60
2019-02-24T13:14:09.902Z,21.60
2019-02-24T13:16:37.958Z,20.60
2019-02-24T13:19:05.961Z,21.00
2019-02-24T13:21:34.003Z,20.50
2019-02-24T13:24:02.037Z,19.80
2019-02-24T13:26:29.958Z,19.50
2019-02-24T13:28:58.007Z,19.80
2019-02-24T13:31:26.281Z,19.70
2019-02-24T13:33:54.518Z,21.70
2019-02-24T13:36:22.965Z,20.30
2019-02-24T13:38:51.057Z,20.20
2019-02-24T13:41:19.259Z,21.60
2019-02-24T13:43:47.110Z,22.60
2019-02-24T13:46:15.031Z,22.60
2019-02-24T13:48:43.070Z,21.70
2019-02-24T13:51:11.158Z,21.10
2019-02-24T13:53:39.127Z,20.10
2019-02-24T13:56:07.888Z,20.80
2019-02-24T13:58:36.169Z,21.70
2019-02-24T14:01:04.399Z,21.90
2019-02-24T14:03:32.336Z,20.90
2019-02-24T14:06:00.388Z,20.00
2019-02-24T14:08:28.598Z,19.60
2019-02-24T14:10:56.555Z,20.20
2019-02-24T14:13:24.597Z,20.60
2019-02-24T14:15:57.686Z,21.00
2019-02-24T14:18:25.972Z,20.70
2019-02-24T14:20:54.178Z,19.80
2019-02-24T14:23:22.551Z,21.00
2019-02-24T14:25:50.682Z,21.60
2019-02-24T14:28:18.827Z,20.90
2019-02-24T14:30:47.355Z,20.20
2019-02-24T14:33:16.353Z,20.70
2019-02-24T14:35:44.655Z,21.60
2019-02-24T14:38:13.351Z,19.70
2019-02-24T14:40:41.804Z,21.40
2019-02-24T14:43:10.289Z,22.00
2019-02-24T14:45:38.750Z,20.90
2019-02-24T14:48:06.691Z,19.80
2019-02-24T14:50:34.972Z,20.00
2019-02-24T14:53:03.194Z,20.30
2019-02-24T14:55:31.506Z,21.00
2019-02-24T14:57:59.859Z,22.00
2019-02-24T15:00:28.192Z,22.10
2019-02-24T15:02:56.383Z,22.50
2019-02-24T15:05:24.646Z,22.20
2019-02-24T15:07:52.717Z,21.00
2019-02-24T15:10:20.963Z,21.60
2019-02-24T15:12:48.778Z,21.00
2019-02-24T15:15:52.157Z,21.40
2019-02-24T15:18:18.950Z,20.90
2019-02-24T15:20:47.087Z,21.00
2019-02-24T15:23:15.942Z,20.50
2019-02-24T15:25:44.580Z,21.20
2019-02-24T15:28:12.925Z,21.50
2019-02-24T15:30:40.958Z,21.70
2019-02-24T15:33:08.865Z,22.00
2019-02-24T15:35:36.778Z,22.80
2019-02-24T15:38:05.158Z,21.90
2019-02-24T15:40:33.788Z,21.50
2019-02-24T15:43:02.258Z,21.30
2019-02-24T15:45:30.761Z,22.50
2019-02-24T15:47:58.728Z,21.60
2019-02-24T15:50:27.106Z,22.70
2019-02-24T15:52:55.478Z,22.40
2019-02-24T15:55:23.852Z,22.40
2019-02-24T15:57:52.266Z,22.40
2019-02-24T16:00:21.027Z,22.50
2019-02-24T16:02:49.448Z,22.30
2019-02-24T16:05:17.885Z,21.80
2019-02-24T16:07:46.603Z,21.30
2019-02-24T16:10:15.810Z,21.70
2019-02-24T16:13:01.456Z,22.30
2019-02-24T16:16:00.459Z,22.80
2019-02-24T16:18:29.315Z,22.50
2019-02-24T16:20:58.077Z,23.80
2019-02-24T16:23:28.935Z,23.50
2019-02-24T16:25:57.799Z,22.50
2019-02-24T16:28:26.583Z,22.40
2019-02-24T16:30:55.404Z,22.70
2019-02-24T16:33:24.312Z,24.00
2019-02-24T16:35:53.062Z,22.50
2019-02-24T16:38:22.088Z,23.10
2019-02-24T16:40:50.949Z,23.70
2019-02-24T16:43:19.670Z,23.60
2019-02-24T16:45:48.442Z,23.10
2019-02-24T16:48:17.246Z,24.10
2019-02-24T16:50:46.550Z,24.10
2019-02-24T16:53:15.304Z,24.40
2019-02-24T16:55:44.007Z,24.40
2019-02-24T16:58:12.792Z,24.30
2019-02-24T17:00:42.105Z,24.20
2019-02-24T17:03:19.450Z,24.50
2019-02-24T17:05:41.832Z,24.70
2019-02-24T17:08:10.576Z,24.40
2019-02-24T17:10:39.559Z,24.70
2019-02-24T17:13:08.437Z,24.80
2019-02-24T17:15:49.346Z,25.50
2019-02-24T17:18:19.592Z,25.60
2019-02-24T17:20:48.691Z,25.10
2019-02-24T17:23:17.494Z,24.70
2019-02-24T17:25:46.747Z,25.90
2019-02-24T17:28:15.567Z,26.00
2019-02-24T17:30:44.407Z,25.40
2019-02-24T17:33:13.094Z,25.70
2019-02-24T17:35:41.839Z,25.90
2019-02-24T17:38:10.671Z,27.00
2019-02-24T17:40:39.480Z,26.70
2019-02-24T17:43:08.259Z,27.40
2019-02-24T17:45:37.042Z,28.00
2019-02-24T17:48:05.851Z,27.90
2019-02-24T17:50:34.703Z,28.60
2019-02-24T17:53:03.698Z,29.40
2019-02-24T17:55:33.566Z,28.40
2019-02-24T17:58:02.494Z,28.10
2019-02-24T18:00:32.667Z,28.60
2019-02-24T18:03:01.466Z,29.60
2019-02-24T18:05:30.039Z,28.10
2019-02-24T18:07:58.393Z,27.10
2019-02-24T18:10:26.843Z,26.90
2019-02-24T18:12:55.315Z,27.50
2019-02-24T18:16:02.408Z,27.40
2019-02-24T18:18:29.578Z,27.40
2019-02-24T18:20:57.822Z,27.40
2019-02-24T18:23:26.198Z,28.10
2019-02-24T18:25:54.239Z,27.00
2019-02-24T18:28:22.263Z,27.20
2019-02-24T18:30:50.224Z,27.60
2019-02-24T18:33:18.072Z,27.90
2019-02-24T18:35:46.038Z,27.80
2019-02-24T18:38:14.030Z,27.70
2019-02-24T18:40:42.145Z,27.40
2019-02-24T18:43:10.074Z,27.30
2019-02-24T18:45:38.056Z,27.80
2019-02-24T18:48:06.482Z,27.90
2019-02-24T18:50:34.608Z,27.00
2019-02-24T18:53:02.871Z,27.20
2019-02-24T18:55:30.879Z,27.00
2019-02-24T18:57:59.158Z,27.80
2019-02-24T19:00:27.410Z,28.20
2019-02-24T19:02:55.559Z,27.10
2019-02-24T19:05:23.863Z,27.10
2019-02-24T19:07:51.970Z,27.60
2019-02-24T19:10:21.492Z,28.60
2019-02-24T19:12:49.998Z,28.70
2019-02-24T19:16:03.611Z,28.90
2019-02-24T19:18:30.240Z,28.80
2019-02-24T19:20:58.172Z,28.60
2019-02-24T19:23:26.479Z,28.30
2019-02-24T19:25:54.591Z,27.70
2019-02-24T19:28:22.811Z,28.10
2019-02-24T19:30:50.883Z,28.30
2019-02-24T19:33:18.834Z,28.90
2019-02-24T19:35:46.770Z,28.90
2019-02-24T19:38:15.915Z,28.00
2019-02-24T19:40:43.930Z,27.90
2019-02-24T19:43:11.867Z,28.50
2019-02-24T19:45:39.884Z,28.80
2019-02-24T19:48:08.040Z,28.80
2019-02-24T19:50:35.990Z,29.20
2019-02-24T19:53:04.314Z,29.50
2019-02-24T19:55:32.325Z,28.80
2019-02-24T19:58:00.555Z,29.20
2019-02-24T20:00:28.707Z,29.80
2019-02-24T20:02:56.650Z,30.00
2019-02-24T20:05:24.583Z,30.30
2019-02-24T20:07:52.510Z,29.90
2019-02-24T20:10:21.411Z,29.30
2019-02-24T20:12:49.535Z,29.90
2019-02-24T20:15:52.617Z,30.10
2019-02-24T20:18:19.486Z,30.50
2019-02-24T20:20:47.427Z,29.70
2019-02-24T20:23:15.342Z,30.00
2019-02-24T20:25:43.801Z,28.90
2019-02-24T20:28:11.766Z,28.70
2019-02-24T20:30:39.790Z,29.60
2019-02-24T20:33:07.666Z,29.60
2019-02-24T20:35:35.680Z,29.70
2019-02-24T20:38:03.790Z,29.70
2019-02-24T20:40:31.569Z,29.80
2019-02-24T20:42:59.694Z,29.30
2019-02-24T20:45:29.363Z,29.70
2019-02-24T20:47:57.590Z,31.00
2019-02-24T20:50:25.573Z,30.00
2019-02-24T20:52:53.575Z,30.00
2019-02-24T20:55:21.669Z,30.60
2019-02-24T20:57:49.723Z,31.00
2019-02-24T21:00:23.065Z,30.90
2019-02-24T21:02:51.526Z,30.60
2019-02-24T21:05:19.636Z,30.00
2019-02-24T21:07:47.530Z,31.40
2019-02-24T21:10:15.841Z,32.50
2019-02-24T21:12:43.848Z,33.30
2019-02-24T21:15:50.163Z,34.00
2019-02-24T21:18:16.911Z,34.30
2019-02-24T21:20:45.027Z,35.10
2019-02-24T21:23:12.926Z,34.20
2019-02-24T21:26:08.705Z,34.60
2019-02-24T21:28:36.067Z,34.80
2019-02-24T21:31:04.213Z,34.70
2019-02-24T21:33:32.166Z,34.20
2019-02-24T21:36:00.135Z,35.30
2019-02-24T21:38:28.152Z,35.10
2019-02-24T21:40:56.183Z,35.20
2019-02-24T21:43:24.062Z,35.40
2019-02-24T21:45:52.072Z,35.90
2019-02-24T21:48:20.082Z,36.50
2019-02-24T21:50:47.931Z,37.00
2019-02-24T21:53:16.349Z,36.30
2019-02-24T21:55:44.256Z,35.90
2019-02-24T21:58:12.212Z,35.80
2019-02-24T22:00:40.318Z,35.90
2019-02-24T22:03:08.507Z,36.30
2019-02-24T22:05:36.419Z,34.90
2019-02-24T22:08:04.503Z,34.40
2019-02-24T22:10:32.434Z,34.70
2019-02-24T22:13:00.387Z,35.60
2019-02-24T22:16:08.396Z,35.90
2019-02-24T22:18:34.814Z,36.50
2019-02-24T22:21:02.903Z,36.90
2019-02-24T22:23:30.935Z,37.50
2019-02-24T22:25:58.794Z,37.40
2019-02-24T22:28:26.958Z,37.60
2019-02-24T22:30:54.878Z,36.60
2019-02-24T22:33:23.128Z,37.20
2019-02-24T22:35:51.065Z,37.40
2019-02-24T22:38:18.967Z,37.30
2019-02-24T22:40:54.178Z,37.40
2019-02-24T22:43:25.034Z,37.70
2019-02-24T22:45:57.017Z,36.80
2019-02-24T22:48:25.224Z,36.40
2019-02-24T22:50:53.578Z,36.80
2019-02-24T22:53:21.679Z,38.00
2019-02-24T22:55:50.368Z,37.10
2019-02-24T22:58:18.456Z,38.10
2019-02-24T23:00:57.079Z,37.50
2019-02-24T23:03:32.416Z,38.30
2019-02-24T23:06:00.712Z,38.60
2019-02-24T23:08:33.756Z,38.70
2019-02-24T23:11:02.597Z,38.20
2019-02-24T23:13:32.969Z,37.40
2019-02-24T23:16:02.786Z,39.10
2019-02-24T23:18:31.409Z,39.50
2019-02-24T23:21:02.854Z,39.10
2019-02-24T23:23:35.010Z,38.60
2019-02-24T23:26:16.906Z,38.30
2019-02-24T23:28:47.388Z,38.40
2019-02-24T23:31:17.672Z,38.50
2019-02-24T23:33:51.652Z,38.40
2019-02-24T23:36:25.679Z,38.70
2019-02-24T23:38:55.197Z,38.70
2019-02-24T23:41:31.764Z,39.30
2019-02-24T23:44:02.234Z,39.30
2019-02-24T23:46:33.178Z,38.20
2019-02-24T23:49:02.059Z,38.00
2019-02-24T23:51:31.809Z,37.80
2019-02-24T23:54:05.634Z,38.10
2019-02-24T23:56:37.101Z,38.40
2019-02-24T23:59:08.243Z,38.20
